| time (UTC) | temp F | wind direction | speed MPH | gust MPH | rain 1hr in | rain 24hr in | rain mn in | humidity % | barometer mb |
| 20260509005527 | 70 | 360 | 0.0 | 7.0 | 0.00 | 0.15 | 0.11 | 34 | 1010.5 |
| 20260509005028 | 70 | 360 | 0.0 | 9.0 | 0.00 | 0.15 | 0.11 | 34 | 1010.5 |
| 20260509004531 | 70 | 360 | 0.0 | 7.0 | 0.00 | 0.15 | 0.11 | 34 | 1010.5 |
| 20260509004032 | 70 | 360 | 3.0 | 10.0 | 0.00 | 0.15 | 0.11 | 33 | 1010.6 |
| 20260509003613 | 71 | 360 | 2.0 | 10.0 | 0.00 | 0.15 | 0.11 | 33 | 1010.6 |
| 20260509002552 | 71 | 360 | 0.0 | 0.0 | 0.00 | 0.15 | 0.11 | 32 | 1010.6 |
| 20260509002032 | 72 | 360 | 0.0 | 0.0 | 0.00 | 0.15 | 0.11 | 32 | 1010.6 |
| 20260509001533 | 72 | 360 | 0.0 | 0.0 | 0.00 | 0.15 | 0.11 | 33 | 1010.7 |
| 20260509001037 | 71 | 360 | 0.0 | 0.0 | 0.00 | 0.15 | 0.11 | 32 | 1010.7 |
| 20260509000536 | 71 | 360 | 0.0 | 0.0 | 0.00 | 0.15 | 0.11 | 33 | 1010.7 |
| 20260509000041 | 72 | 360 | 0.0 | 0.0 | 0.00 | 0.15 | 0.11 | 32 | 1010.8 |
| 20260508235602 | 72 | 360 | 0.0 | 0.0 | 0.00 | 0.15 | 0.11 | 33 | 1010.9 |
| 20260508235119 | 72 | 360 | 0.0 | 0.0 | 0.00 | 0.15 | 0.11 | 33 | 1010.9 |
| 20260508234559 | 71 | 360 | 0.0 | 0.0 | 0.00 | 0.15 | 0.11 | 34 | 1011.0 |
| 20260508234045 | 71 | 360 | 0.0 | 0.0 | 0.00 | 0.15 | 0.11 | 34 | 1011.0 |
| 20260508233544 | 72 | 360 | 0.0 | 0.0 | 0.00 | 0.15 | 0.11 | 32 | 1011.1 |
| 20260508233025 | 72 | 360 | 0.0 | 0.0 | 0.00 | 0.15 | 0.11 | 33 | 1011.1 |
| 20260508232527 | 72 | 360 | 0.0 | 0.0 | 0.00 | 0.15 | 0.11 | 33 | 1011.2 |
| 20260508232028 | 72 | 360 | 0.0 | 0.0 | 0.00 | 0.15 | 0.11 | 33 | 1010.4 |
| 20260508231610 | 72 | 360 | 0.0 | 0.0 | 0.00 | 0.15 | 0.11 | 33 | 1010.5 |
| 20260508231030 | 71 | 360 | 0.0 | 0.0 | 0.00 | 0.15 | 0.11 | 32 | 1010.5 |
| 20260508230551 | 72 | 360 | 0.0 | 0.0 | 0.00 | 0.15 | 0.11 | 32 | 1010.6 |
| 20260508230031 | 71 | 360 | 0.0 | 0.0 | 0.00 | 0.15 | 0.11 | 32 | 1010.6 |
| 20260508225553 | 71 | 360 | 0.0 | 0.0 | 0.00 | 0.15 | 0.11 | 31 | 1010.8 |
| 20260508224532 | 71 | 360 | 0.0 | 0.0 | 0.00 | 0.15 | 0.11 | 32 | 1010.9 |
| 20260508224117 | 71 | 360 | 0.0 | 0.0 | 0.00 | 0.15 | 0.11 | 32 | 1011.0 |
| 20260508223615 | 70 | 360 | 0.0 | 0.0 | 0.00 | 0.15 | 0.11 | 32 | 1011.0 |
| 20260508223034 | 70 | 360 | 0.0 | 0.0 | 0.00 | 0.15 | 0.11 | 32 | 1011.1 |
| 20260508222535 | 70 | 360 | 0.0 | 0.0 | 0.00 | 0.15 | 0.11 | 32 | 1011.1 |
| 20260508222117 | 70 | 360 | 0.0 | 0.0 | 0.00 | 0.15 | 0.11 | 33 | 1011.2 |
| 20260508221618 | 70 | 360 | 0.0 | 0.0 | 0.01 | 0.15 | 0.11 | 34 | 1011.3 |
| 20260508221059 | 70 | 360 | 0.0 | 0.0 | 0.01 | 0.15 | 0.11 | 32 | 1011.3 |
| 20260508220538 | 70 | 360 | 0.0 | 0.0 | 0.01 | 0.15 | 0.11 | 32 | 1011.4 |
| 20260508220038 | 70 | 360 | 0.0 | 0.0 | 0.01 | 0.15 | 0.11 | 31 | 1011.5 |
| 20260508215601 | 70 | 360 | 0.0 | 0.0 | 0.01 | 0.15 | 0.11 | 30 | 1011.5 |
| 20260508215041 | 70 | 360 | 0.0 | 0.0 | 0.01 | 0.15 | 0.11 | 30 | 1011.5 |
| 20260508214622 | 71 | 360 | 0.0 | 0.0 | 0.01 | 0.15 | 0.11 | 29 | 1011.6 |
| 20260508214103 | 70 | 360 | 0.0 | 7.0 | 0.01 | 0.15 | 0.11 | 31 | 1011.7 |
| 20260508213623 | 70 | 360 | 1.0 | 7.0 | 0.01 | 0.15 | 0.11 | 30 | 1011.8 |
| 20260508213123 | 70 | 360 | 0.0 | 1.0 | 0.01 | 0.15 | 0.11 | 29 | 1011.9 |
| 20260508212602 | 70 | 360 | 0.0 | 0.0 | 0.01 | 0.15 | 0.11 | 29 | 1011.9 |
| 20260508212122 | 70 | 360 | 0.0 | 0.0 | 0.01 | 0.15 | 0.11 | 30 | 1012.0 |
| 20260508211541 | 70 | 360 | 0.0 | 0.0 | 0.00 | 0.14 | 0.10 | 30 | 1012.1 |
| 20260508211044 | 70 | 360 | 0.0 | 0.0 | 0.00 | 0.14 | 0.10 | 30 | 1012.1 |
| 20260508210605 | 70 | 360 | 0.0 | 0.0 | 0.00 | 0.14 | 0.10 | 31 | 1012.3 |
| 20260508210026 | 69 | 360 | 0.0 | 1.0 | 0.00 | 0.14 | 0.10 | 31 | 1012.4 |
| 20260508205527 | 69 | 360 | 0.0 | 1.0 | 0.00 | 0.14 | 0.10 | 31 | 1012.5 |
| 20260508205110 | 69 | 360 | 0.0 | 7.0 | 0.00 | 0.14 | 0.10 | 31 | 1012.5 |
| 20260508204528 | 69 | 360 | 0.0 | 11.0 | 0.00 | 0.14 | 0.10 | 31 | 1012.6 |
| 20260508204111 | 70 | 360 | 2.0 | 11.0 | 0.00 | 0.14 | 0.10 | 31 | 1012.6 |
| 20260508203530 | 70 | 360 | 0.0 | 0.0 | 0.00 | 0.14 | 0.10 | 31 | 1012.6 |
| 20260508203031 | 70 | 360 | 0.0 | 0.0 | 0.00 | 0.14 | 0.10 | 34 | 1012.7 |
| 20260508202553 | 69 | 360 | 0.0 | 5.0 | 0.00 | 0.14 | 0.10 | 32 | 1012.8 |
| 20260508202032 | 69 | 360 | 0.0 | 5.0 | 0.00 | 0.14 | 0.10 | 32 | 1012.9 |
| 20260508201533 | 68 | 360 | 0.0 | 3.0 | 0.00 | 0.14 | 0.10 | 33 | 1012.9 |
| 20260508201037 | 68 | 360 | 0.0 | 6.0 | 0.00 | 0.14 | 0.10 | 32 | 1013.1 |
| 20260508200536 | 68 | 360 | 1.0 | 6.0 | 0.00 | 0.14 | 0.10 | 33 | 1013.1 |
| 20260508200058 | 68 | 360 | 0.0 | 0.0 | 0.00 | 0.14 | 0.10 | 32 | 1013.1 |
| 20260508195559 | 68 | 360 | 0.0 | 0.0 | 0.00 | 0.14 | 0.10 | 34 | 1013.3 |
| 20260508195042 | 68 | 360 | 0.0 | 0.0 | 0.00 | 0.14 | 0.10 | 35 | 1013.4 |
| 20260508194603 | 67 | 360 | 0.0 | 0.0 | 0.00 | 0.14 | 0.10 | 34 | 1013.4 |
| 20260508194026 | 67 | 360 | 0.0 | 5.0 | 0.00 | 0.14 | 0.10 | 35 | 1013.5 |
| 20260508193525 | 67 | 360 | 0.0 | 5.0 | 0.00 | 0.14 | 0.10 | 35 | 1013.6 |
| 20260508193127 | 67 | 360 | 0.0 | 0.0 | 0.00 | 0.14 | 0.10 | 36 | 1013.7 |
| 20260508192546 | 67 | 360 | 0.0 | 0.0 | 0.00 | 0.14 | 0.10 | 37 | 1013.9 |
| 20260508192026 | 67 | 360 | 0.0 | 0.0 | 0.01 | 0.14 | 0.10 | 36 | 1013.9 |
| 20260508191527 | 67 | 360 | 0.0 | 0.0 | 0.01 | 0.14 | 0.10 | 37 | 1013.9 |
| 20260508191111 | 66 | 360 | 0.0 | 0.0 | 0.01 | 0.14 | 0.10 | 36 | 1014.2 |
| 20260508190609 | 66 | 360 | 0.0 | 0.0 | 0.01 | 0.14 | 0.10 | 38 | 1014.2 |
| 20260508190028 | 66 | 360 | 0.0 | 0.0 | 0.01 | 0.14 | 0.10 | 38 | 1014.2 |
| 20260508185530 | 66 | 360 | 0.0 | 0.0 | 0.01 | 0.14 | 0.10 | 38 | 1014.3 |
| 20260508185031 | 66 | 360 | 0.0 | 0.0 | 0.01 | 0.14 | 0.10 | 39 | 1014.4 |
| 20260508184553 | 65 | 360 | 0.0 | 0.0 | 0.01 | 0.14 | 0.10 | 40 | 1014.5 |
| 20260508184054 | 65 | 360 | 0.0 | 0.0 | 0.01 | 0.14 | 0.10 | 41 | 1014.6 |
| 20260508183554 | 65 | 360 | 0.0 | 0.0 | 0.01 | 0.14 | 0.10 | 41 | 1014.7 |
| 20260508183054 | 65 | 360 | 0.0 | 0.0 | 0.01 | 0.14 | 0.10 | 41 | 1014.8 |
| 20260508182555 | 65 | 360 | 0.0 | 0.0 | 0.01 | 0.14 | 0.10 | 42 | 1014.8 |
| 20260508182056 | 65 | 360 | 0.0 | 0.0 | 0.00 | 0.13 | 0.09 | 43 | 1014.9 |
| 20260508181536 | 64 | 360 | 0.0 | 0.0 | 0.00 | 0.13 | 0.09 | 42 | 1015.0 |
| 20260508181039 | 65 | 360 | 0.0 | 0.0 | 0.00 | 0.13 | 0.09 | 43 | 1015.0 |
| 20260508180559 | 64 | 360 | 0.0 | 0.0 | 0.00 | 0.13 | 0.09 | 42 | 1015.2 |
| 20260508175539 | 65 | 360 | 0.0 | 0.0 | 0.00 | 0.13 | 0.09 | 44 | 1015.2 |
| 20260508175121 | 64 | 360 | 0.0 | 0.0 | 0.00 | 0.13 | 0.09 | 43 | 1015.3 |
| 20260508174539 | 64 | 360 | 0.0 | 0.0 | 0.00 | 0.13 | 0.09 | 45 | 1015.4 |
| 20260508174041 | 64 | 360 | 0.0 | 0.0 | 0.00 | 0.13 | 0.09 | 47 | 1015.3 |
| 20260508173541 | 63 | 360 | 0.0 | 0.0 | 0.00 | 0.13 | 0.09 | 47 | 1015.5 |
| 20260508173042 | 63 | 360 | 0.0 | 0.0 | 0.00 | 0.13 | 0.09 | 51 | 1015.5 |
| 20260508172623 | 63 | 360 | 0.0 | 0.0 | 0.00 | 0.13 | 0.09 | 50 | 1015.6 |
| 20260508172103 | 62 | 360 | 0.0 | 0.0 | 0.00 | 0.13 | 0.09 | 51 | 1015.7 |
| 20260508171604 | 62 | 360 | 0.0 | 0.0 | 0.00 | 0.13 | 0.09 | 52 | 1015.7 |
| 20260508171046 | 62 | 360 | 0.0 | 0.0 | 0.00 | 0.13 | 0.09 | 50 | 1015.6 |
| 20260508170626 | 62 | 360 | 0.0 | 0.0 | 0.01 | 0.13 | 0.09 | 50 | 1015.7 |
| 20260508170025 | 62 | 360 | 0.0 | 0.0 | 0.01 | 0.13 | 0.09 | 51 | 1015.8 |
| 20260508165607 | 62 | 360 | 0.0 | 0.0 | 0.01 | 0.13 | 0.09 | 51 | 1015.7 |
| 20260508165027 | 61 | 360 | 0.0 | 0.0 | 0.01 | 0.13 | 0.09 | 53 | 1015.8 |
| 20260508164528 | 61 | 360 | 0.0 | 0.0 | 0.01 | 0.13 | 0.09 | 54 | 1015.9 |
| 20260508164051 | 61 | 360 | 0.0 | 0.0 | 0.01 | 0.13 | 0.09 | 54 | 1015.8 |
| 20260508163530 | 61 | 360 | 0.0 | 0.0 | 0.01 | 0.13 | 0.09 | 53 | 1015.9 |
| 20260508163035 | 61 | 360 | 0.0 | 0.0 | 0.01 | 0.13 | 0.09 | 55 | 1016.0 |
| 20260508162613 | 60 | 360 | 0.0 | 0.0 | 0.01 | 0.13 | 0.09 | 57 | 1016.0 |
| 20260508162112 | 59 | 360 | 0.0 | 0.0 | 0.01 | 0.13 | 0.09 | 58 | 1016.1 |
| 20260508161531 | 59 | 360 | 0.0 | 0.0 | 0.01 | 0.13 | 0.09 | 59 | 1016.2 |
| 20260508161038 | 59 | 360 | 0.0 | 0.0 | 0.01 | 0.13 | 0.09 | 58 | 1016.2 |
| 20260508160537 | 59 | 360 | 0.0 | 0.0 | 0.00 | 0.12 | 0.08 | 60 | 1016.3 |
| 20260508160119 | 58 | 360 | 0.0 | 0.0 | 0.00 | 0.12 | 0.08 | 60 | 1016.3 |
| 20260508155558 | 58 | 360 | 0.0 | 0.0 | 0.00 | 0.12 | 0.08 | 61 | 1016.3 |
| 20260508155038 | 57 | 360 | 0.0 | 0.0 | 0.00 | 0.12 | 0.08 | 61 | 1016.4 |
| 20260508154620 | 58 | 360 | 0.0 | 0.0 | 0.00 | 0.12 | 0.08 | 62 | 1016.3 |
| 20260508154116 | 57 | 360 | 0.0 | 0.0 | 0.00 | 0.12 | 0.08 | 65 | 1016.3 |
| 20260508153540 | 57 | 360 | 0.0 | 0.0 | 0.00 | 0.12 | 0.08 | 65 | 1016.5 |
| 20260508153117 | 57 | 360 | 0.0 | 0.0 | 0.00 | 0.12 | 0.08 | 66 | 1016.5 |
| 20260508152540 | 56 | 360 | 0.0 | 0.0 | 0.01 | 0.12 | 0.08 | 65 | 1016.6 |
| 20260508152059 | 56 | 360 | 0.0 | 0.0 | 0.01 | 0.12 | 0.08 | 67 | 1016.6 |
| 20260508151539 | 56 | 360 | 0.0 | 0.0 | 0.01 | 0.12 | 0.08 | 66 | 1016.6 |
| 20260508151101 | 56 | 360 | 0.0 | 0.0 | 0.01 | 0.12 | 0.08 | 67 | 1016.7 |
| 20260508150620 | 55 | 360 | 0.0 | 0.0 | 0.01 | 0.12 | 0.08 | 66 | 1016.7 |
| 20260508150101 | 55 | 360 | 0.0 | 0.0 | 0.01 | 0.12 | 0.08 | 67 | 1016.8 |
| 20260508145600 | 55 | 360 | 0.0 | 0.0 | 0.01 | 0.12 | 0.08 | 67 | 1016.8 |
| 20260508145041 | 55 | 360 | 0.0 | 0.0 | 0.01 | 0.12 | 0.08 | 67 | 1016.8 |
| 20260508144543 | 55 | 360 | 0.0 | 0.0 | 0.01 | 0.12 | 0.08 | 69 | 1016.8 |
| 20260508144126 | 55 | 360 | 0.0 | 0.0 | 0.01 | 0.12 | 0.08 | 70 | 1016.8 |
| 20260508143543 | 54 | 360 | 0.0 | 0.0 | 0.01 | 0.12 | 0.08 | 72 | 1016.9 |
| 20260508142544 | 52 | 360 | 0.0 | 0.0 | 0.00 | 0.11 | 0.07 | 77 | 1017.0 |
| 20260508142105 | 51 | 360 | 0.0 | 0.0 | 0.00 | 0.11 | 0.07 | 79 | 1017.0 |
| 20260508141525 | 50 | 360 | 0.0 | 0.0 | 0.00 | 0.11 | 0.07 | 81 | 1017.1 |
| 20260508141127 | 50 | 360 | 0.0 | 0.0 | 0.00 | 0.11 | 0.07 | 82 | 1017.1 |
| 20260508140100 | 48 | 360 | 0.0 | 0.0 | 0.00 | 0.11 | 0.07 | 83 | 1017.1 |
| 20260508135544 | 47 | 360 | 0.0 | 0.0 | 0.00 | 0.11 | 0.07 | 84 | 1017.2 |
| 20260508135105 | 47 | 360 | 0.0 | 0.0 | 0.00 | 0.11 | 0.07 | 84 | 1017.1 |
| 20260508134546 | 47 | 360 | 0.0 | 0.0 | 0.00 | 0.11 | 0.07 | 84 | 1017.2 |
| 20260508134045 | 46 | 360 | 0.0 | 0.0 | 0.00 | 0.11 | 0.07 | 84 | 1017.2 |
| 20260508133545 | 46 | 360 | 0.0 | 0.0 | 0.00 | 0.11 | 0.07 | 84 | 1017.1 |
| 20260508132526 | 43 | 360 | 0.0 | 0.0 | 0.01 | 0.11 | 0.07 | 84 | 1017.1 |
| 20260508132107 | 42 | 360 | 0.0 | 0.0 | 0.01 | 0.11 | 0.07 | 84 | 1016.9 |
| 20260508131547 | 42 | 360 | 0.0 | 0.0 | 0.01 | 0.11 | 0.07 | 84 | 1016.9 |
| 20260508131048 | 42 | 360 | 0.0 | 0.0 | 0.01 | 0.11 | 0.07 | 84 | 1016.9 |
| 20260508130548 | 42 | 360 | 0.0 | 0.0 | 0.01 | 0.11 | 0.07 | 84 | 1016.9 |
| 20260508130028 | 42 | 360 | 0.0 | 0.0 | 0.01 | 0.11 | 0.07 | 84 | 1016.8 |
| 20260508125530 | 42 | 360 | 0.0 | 0.0 | 0.01 | 0.11 | 0.07 | 84 | 1016.8 |
| 20260508124530 | 42 | 360 | 0.0 | 0.0 | 0.01 | 0.11 | 0.07 | 84 | 1016.7 |
| 20260508124115 | 41 | 360 | 0.0 | 0.0 | 0.01 | 0.11 | 0.07 | 84 | 1016.7 |
| 20260508123553 | 41 | 360 | 0.0 | 0.0 | 0.01 | 0.11 | 0.07 | 84 | 1016.7 |
| 20260508123034 | 41 | 360 | 0.0 | 0.0 | 0.01 | 0.11 | 0.07 | 84 | 1016.6 |
| 20260508122556 | 41 | 360 | 0.0 | 0.0 | 0.00 | 0.10 | 0.06 | 84 | 1016.6 |
| 20260508122036 | 41 | 360 | 0.0 | 0.0 | 0.00 | 0.10 | 0.06 | 84 | 1016.6 |
| 20260508121537 | 41 | 360 | 0.0 | 4.0 | 0.00 | 0.10 | 0.06 | 83 | 1016.5 |
| 20260508121100 | 40 | 360 | 2.0 | 4.0 | 0.00 | 0.10 | 0.06 | 83 | 1016.5 |
| 20260508120558 | 40 | 360 | 4.0 | 4.0 | 0.00 | 0.10 | 0.06 | 83 | 1016.5 |
| 20260508120119 | 41 | 360 | 1.0 | 5.0 | 0.00 | 0.10 | 0.06 | 84 | 1016.5 |
| 20260508115619 | 41 | 360 | 3.0 | 5.0 | 0.00 | 0.10 | 0.06 | 84 | 1016.4 |
| 20260508115038 | 40 | 360 | 4.0 | 5.0 | 0.00 | 0.10 | 0.06 | 83 | 1016.5 |
| 20260508114620 | 40 | 360 | 0.0 | 5.0 | 0.00 | 0.10 | 0.06 | 83 | 1016.4 |
| 20260508114121 | 41 | 360 | 4.0 | 5.0 | 0.01 | 0.10 | 0.06 | 83 | 1016.3 |
| 20260508113559 | 41 | 360 | 0.0 | 0.0 | 0.01 | 0.10 | 0.06 | 83 | 1016.3 |
| 20260508113039 | 40 | 360 | 0.0 | 0.0 | 0.01 | 0.10 | 0.06 | 83 | 1016.3 |
| 20260508112600 | 40 | 360 | 0.0 | 0.0 | 0.01 | 0.10 | 0.06 | 83 | 1016.3 |
| 20260508112121 | 40 | 360 | 0.0 | 0.0 | 0.01 | 0.10 | 0.06 | 83 | 1016.3 |
| 20260508111542 | 40 | 360 | 0.0 | 0.0 | 0.01 | 0.10 | 0.06 | 83 | 1016.2 |
| 20260508111045 | 40 | 360 | 0.0 | 0.0 | 0.01 | 0.10 | 0.06 | 83 | 1016.2 |
| 20260508110626 | 40 | 360 | 0.0 | 0.0 | 0.01 | 0.10 | 0.06 | 83 | 1016.3 |
| 20260508110024 | 40 | 360 | 0.0 | 0.0 | 0.01 | 0.10 | 0.06 | 83 | 1016.3 |
| 20260508105546 | 41 | 360 | 0.0 | 0.0 | 0.01 | 0.10 | 0.06 | 83 | 1016.3 |
| 20260508104525 | 41 | 360 | 0.0 | 6.0 | 0.01 | 0.10 | 0.06 | 83 | 1016.3 |
| 20260508104028 | 41 | 360 | 3.0 | 6.0 | 0.00 | 0.09 | 0.05 | 83 | 1016.3 |
| 20260508103528 | 41 | 360 | 5.0 | 6.0 | 0.00 | 0.09 | 0.05 | 83 | 1016.2 |
| 20260508103028 | 41 | 360 | 4.0 | 6.0 | 0.00 | 0.09 | 0.05 | 83 | 1016.1 |
| 20260508102549 | 41 | 360 | 4.0 | 6.0 | 0.00 | 0.09 | 0.05 | 83 | 1016.2 |
| 20260508102029 | 41 | 360 | 0.0 | 5.0 | 0.00 | 0.09 | 0.05 | 83 | 1016.2 |
| 20260508101531 | 41 | 360 | 0.0 | 4.0 | 0.00 | 0.09 | 0.05 | 83 | 1016.2 |
| 20260508101054 | 42 | 360 | 3.0 | 6.0 | 0.01 | 0.09 | 0.05 | 83 | 1016.2 |
| 20260508100613 | 42 | 360 | 5.0 | 6.0 | 0.01 | 0.09 | 0.05 | 83 | 1016.2 |
| 20260508095548 | 42 | 360 | 0.0 | 0.0 | 0.01 | 0.09 | 0.05 | 83 | 1016.2 |
| 20260508095028 | 42 | 360 | 0.0 | 0.0 | 0.01 | 0.09 | 0.05 | 83 | 1016.2 |
| 20260508094550 | 42 | 360 | 0.0 | 0.0 | 0.01 | 0.09 | 0.05 | 83 | 1016.1 |
| 20260508094031 | 42 | 360 | 0.0 | 6.0 | 0.01 | 0.09 | 0.05 | 83 | 1016.1 |
| 20260508093531 | 42 | 360 | 3.0 | 6.0 | 0.01 | 0.09 | 0.05 | 83 | 1016.1 |
| 20260508092531 | 43 | 360 | 0.0 | 1.0 | 0.01 | 0.09 | 0.05 | 82 | 1016.1 |
| 20260508092114 | 43 | 360 | 0.0 | 4.0 | 0.01 | 0.09 | 0.05 | 82 | 1016.0 |
| 20260508091613 | 43 | 360 | 3.0 | 4.0 | 0.01 | 0.09 | 0.05 | 82 | 1016.1 |
| 20260508091033 | 44 | 360 | 1.0 | 4.0 | 0.01 | 0.08 | 0.04 | 82 | 1016.0 |
| 20260508090555 | 44 | 360 | 3.0 | 4.0 | 0.01 | 0.08 | 0.04 | 82 | 1016.9 |
| 20260508090056 | 45 | 360 | 0.0 | 3.0 | 0.01 | 0.08 | 0.04 | 82 | 1016.9 |
| 20260508085536 | 45 | 360 | 0.0 | 7.0 | 0.01 | 0.08 | 0.04 | 82 | 1016.9 |
| 20260508085119 | 45 | 360 | 4.0 | 7.0 | 0.01 | 0.08 | 0.04 | 82 | 1016.9 |
| 20260508084558 | 46 | 360 | 0.0 | 4.0 | 0.01 | 0.08 | 0.04 | 82 | 1016.9 |
| 20260508084039 | 47 | 360 | 0.0 | 0.0 | 0.01 | 0.08 | 0.04 | 82 | 1017.0 |
| 20260508083621 | 47 | 360 | 0.0 | 0.0 | 0.01 | 0.08 | 0.04 | 82 | 1017.0 |
| 20260508083040 | 47 | 360 | 0.0 | 0.0 | 0.01 | 0.08 | 0.04 | 82 | 1017.0 |
| 20260508082601 | 47 | 360 | 0.0 | 0.0 | 0.01 | 0.08 | 0.04 | 82 | 1017.1 |
| 20260508082123 | 48 | 360 | 0.0 | 0.0 | 0.02 | 0.08 | 0.04 | 82 | 1017.0 |
| 20260508081542 | 48 | 360 | 0.0 | 0.0 | 0.02 | 0.08 | 0.04 | 82 | 1017.1 |
| 20260508081105 | 48 | 360 | 0.0 | 0.0 | 0.01 | 0.07 | 0.03 | 82 | 1017.1 |
| 20260508080543 | 48 | 360 | 0.0 | 0.0 | 0.01 | 0.07 | 0.03 | 82 | 1017.2 |
| 20260508080045 | 48 | 360 | 0.0 | 0.0 | 0.01 | 0.07 | 0.03 | 82 | 1017.2 |
| 20260508075605 | 48 | 360 | 0.0 | 9.0 | 0.01 | 0.07 | 0.03 | 82 | 1017.2 |
| 20260508075024 | 48 | 360 | 3.0 | 9.0 | 0.01 | 0.07 | 0.03 | 82 | 1017.1 |
| 20260508074547 | 48 | 360 | 4.0 | 9.0 | 0.02 | 0.07 | 0.03 | 82 | 1017.2 |
| 20260508074109 | 48 | 360 | 2.0 | 10.0 | 0.02 | 0.07 | 0.03 | 82 | 1017.1 |
| 20260508073526 | 48 | 360 | 6.0 | 10.0 | 0.02 | 0.07 | 0.03 | 82 | 1016.9 |
| 20260508073108 | 48 | 360 | 5.0 | 9.0 | 0.02 | 0.07 | 0.03 | 82 | 1017.2 |
| 20260508072527 | 48 | 360 | 0.0 | 0.0 | 0.02 | 0.07 | 0.03 | 82 | 1017.8 |
| 20260508072029 | 48 | 360 | 0.0 | 0.0 | 0.01 | 0.06 | 0.02 | 82 | 1017.9 |
| 20260508071551 | 48 | 360 | 0.0 | 0.0 | 0.01 | 0.06 | 0.02 | 82 | 1017.8 |
| 20260508071053 | 48 | 360 | 0.0 | 0.0 | 0.02 | 0.06 | 0.02 | 82 | 1017.8 |
| 20260508070536 | 48 | 360 | 0.0 | 1.0 | 0.02 | 0.06 | 0.02 | 82 | 1018.0 |
| 20260508070038 | 48 | 360 | 0.0 | 3.0 | 0.02 | 0.06 | 0.02 | 82 | 1018.0 |
| 20260508065540 | 48 | 360 | 1.0 | 3.0 | 0.02 | 0.06 | 0.02 | 82 | 1017.9 |
| 20260508065122 | 48 | 360 | 0.0 | 2.0 | 0.02 | 0.06 | 0.02 | 82 | 1017.9 |
| 20260508064541 | 48 | 360 | 0.0 | 0.0 | 0.02 | 0.05 | 0.01 | 82 | 1017.8 |
| 20260508064104 | 48 | 360 | 0.0 | 0.0 | 0.02 | 0.05 | 0.01 | 82 | 1017.6 |
| 20260508063543 | 48 | 360 | 0.0 | 0.0 | 0.02 | 0.05 | 0.01 | 82 | 1017.6 |
| 20260508063044 | 48 | 360 | 0.0 | 0.0 | 0.02 | 0.05 | 0.01 | 82 | 1017.5 |
| 20260508062524 | 48 | 360 | 0.0 | 0.0 | 0.02 | 0.05 | 0.01 | 82 | 1017.4 |
| 20260508062026 | 48 | 360 | 0.0 | 1.0 | 0.03 | 0.05 | 0.01 | 82 | 1017.4 |
| 20260508061527 | 48 | 360 | 0.0 | 4.0 | 0.03 | 0.05 | 0.01 | 82 | 1017.3 |
| 20260508061049 | 49 | 360 | 0.0 | 4.0 | 0.02 | 0.04 | 0.00 | 81 | 1017.4 |
| 20260508060527 | 48 | 360 | 0.0 | 5.0 | 0.02 | 0.04 | 0.04 | 82 | 1017.6 |
| 20260508060050 | 48 | 360 | 2.0 | 7.0 | 0.02 | 0.04 | 0.04 | 81 | 1017.6 |
| 20260508055551 | 48 | 360 | 4.0 | 10.0 | 0.02 | 0.04 | 0.04 | 81 | 1018.0 |
| 20260508055031 | 49 | 360 | 2.0 | 12.0 | 0.02 | 0.04 | 0.04 | 82 | 1017.9 |
| 20260508054613 | 49 | 360 | 6.0 | 12.0 | 0.01 | 0.03 | 0.03 | 82 | 1017.9 |
| 20260508054114 | 49 | 360 | 6.0 | 12.0 | 0.01 | 0.03 | 0.03 | 81 | 1018.2 |
| 20260508053613 | 49 | 360 | 3.0 | 13.0 | 0.01 | 0.03 | 0.03 | 81 | 1018.1 |
| 20260508053052 | 49 | 360 | 7.0 | 16.0 | 0.01 | 0.03 | 0.03 | 81 | 1018.1 |
| 20260508052553 | 49 | 360 | 9.0 | 16.0 | 0.02 | 0.03 | 0.03 | 81 | 1018.3 |
| 20260508052033 | 49 | 360 | 8.0 | 14.0 | 0.01 | 0.02 | 0.02 | 81 | 1018.3 |
| 20260508051553 | 50 | 360 | 8.0 | 14.0 | 0.01 | 0.02 | 0.02 | 80 | 1018.2 |
| 20260508051034 | 50 | 360 | 4.0 | 9.0 | 0.01 | 0.02 | 0.02 | 80 | 1018.0 |
| 20260508050535 | 50 | 360 | 5.0 | 9.0 | 0.01 | 0.02 | 0.02 | 80 | 1017.9 |
| 20260508050037 | 49 | 360 | 5.0 | 7.0 | 0.01 | 0.02 | 0.02 | 80 | 1017.5 |
| 20260508045559 | 49 | 360 | 0.0 | 4.0 | 0.01 | 0.02 | 0.02 | 80 | 1017.2 |
| 20260508045100 | 49 | 360 | 0.0 | 5.0 | 0.01 | 0.02 | 0.02 | 80 | 1016.8 |
| 20260508044540 | 49 | 360 | 1.0 | 5.0 | 0.01 | 0.02 | 0.02 | 80 | 1016.7 |
| 20260508044025 | 50 | 360 | 0.0 | 0.0 | 0.01 | 0.02 | 0.02 | 79 | 1016.8 |
| 20260508043546 | 50 | 360 | 0.0 | 0.0 | 0.01 | 0.02 | 0.02 | 79 | 1017.2 |
| 20260508043047 | 50 | 360 | 0.0 | 0.0 | 0.02 | 0.02 | 0.02 | 78 | 1017.1 |
| 20260508042526 | 50 | 360 | 0.0 | 0.0 | 0.01 | 0.01 | 0.01 | 78 | 1017.2 |
| 20260508042028 | 50 | 360 | 0.0 | 3.0 | 0.01 | 0.01 | 0.01 | 77 | 1017.2 |
| 20260508041529 | 50 | 360 | 0.0 | 3.0 | 0.01 | 0.01 | 0.01 | 76 | 1017.1 |
| 20260508041031 | 51 | 360 | 0.0 | 2.0 | 0.01 | 0.01 | 0.01 | 75 | 1017.1 |
| 20260508040532 | 51 | 360 | 0.0 | 2.0 | 0.01 | 0.01 | 0.01 | 75 | 1017.0 |
| 20260508040035 | 51 | 360 | 0.0 | 2.0 | 0.01 | 0.01 | 0.01 | 74 | 1017.0 |
| 20260508035557 | 51 | 360 | 0.0 | 0.0 | 0.01 | 0.01 | 0.01 | 74 | 1017.0 |
| 20260508035038 | 51 | 360 | 0.0 | 7.0 | 0.01 | 0.01 | 0.01 | 74 | 1016.9 |
| 20260508034539 | 51 | 360 | 2.0 | 7.0 | 0.01 | 0.01 | 0.01 | 74 | 1016.7 |
| 20260508034041 | 51 | 360 | 2.0 | 7.0 | 0.01 | 0.01 | 0.01 | 74 | 1016.7 |
| 20260508033601 | 51 | 360 | 3.0 | 11.0 | 0.01 | 0.01 | 0.01 | 74 | 1016.6 |
| 20260508033043 | 52 | 360 | 8.0 | 11.0 | 0.01 | 0.01 | 0.01 | 72 | 1015.8 |
| 20260508032624 | 52 | 360 | 3.0 | 7.0 | 0.00 | 0.00 | 0.00 | 71 | 1016.5 |
| 20260508032043 | 52 | 360 | 2.0 | 11.0 | 0.00 | 0.00 | 0.00 | 71 | 1016.4 |
| 20260508031605 | 52 | 360 | 5.0 | 11.0 | 0.00 | 0.00 | 0.00 | 71 | 1016.3 |
| 20260508031108 | 52 | 360 | 2.0 | 9.0 | 0.00 | 0.00 | 0.00 | 71 | 1016.2 |
| 20260508030606 | 52 | 360 | 6.0 | 10.0 | 0.00 | 0.00 | 0.00 | 71 | 1016.2 |
| 20260508030026 | 53 | 360 | 6.0 | 12.0 | 0.00 | 0.00 | 0.00 | 70 | 1016.1 |
| 20260508025527 | 53 | 360 | 6.0 | 16.0 | 0.00 | 0.00 | 0.00 | 70 | 1015.8 |
| 20260508025032 | 54 | 360 | 11.0 | 20.0 | 0.00 | 0.00 | 0.00 | 68 | 1015.6 |
| 20260508024533 | 55 | 360 | 15.0 | 20.0 | 0.00 | 0.00 | 0.00 | 66 | 1015.4 |
| 20260508024035 | 56 | 360 | 1.0 | 11.0 | 0.00 | 0.00 | 0.00 | 65 | 1015.1 |
| 20260508023556 | 56 | 360 | 6.0 | 12.0 | 0.00 | 0.00 | 0.00 | 62 | 1014.7 |
| 20260508023117 | 57 | 360 | 7.0 | 12.0 | 0.00 | 0.00 | 0.00 | 61 | 1014.7 |
| 20260508022616 | 57 | 360 | 2.0 | 8.0 | 0.00 | 0.00 | 0.00 | 63 | 1014.4 |
| 20260508022112 | 57 | 360 | 0.0 | 8.0 | 0.00 | 0.00 | 0.00 | 64 | 1014.9 |
| 20260508021552 | 57 | 360 | 3.0 | 5.0 | 0.00 | 0.00 | 0.00 | 63 | 1014.9 |
| 20260508021114 | 57 | 360 | 1.0 | 5.0 | 0.00 | 0.00 | 0.00 | 63 | 1014.7 |
| 20260508020532 | 58 | 360 | 0.0 | 7.0 | 0.00 | 0.00 | 0.00 | 62 | 1014.5 |
| 20260508020054 | 58 | 360 | 4.0 | 9.0 | 0.00 | 0.00 | 0.00 | 60 | 1014.2 |
| 20260508015615 | 58 | 360 | 4.0 | 9.0 | 0.00 | 0.00 | 0.00 | 59 | 1014.1 |
| 20260508015033 | 58 | 360 | 4.0 | 10.0 | 0.00 | 0.00 | 0.00 | 59 | 1013.9 |
| 20260508014539 | 58 | 360 | 6.0 | 10.0 | 0.00 | 0.00 | 0.00 | 59 | 1013.7 |
| 20260508014040 | 58 | 360 | 4.0 | 6.0 | 0.00 | 0.00 | 0.00 | 57 | 1013.5 |
| 20260508013601 | 58 | 360 | 3.0 | 5.0 | 0.00 | 0.00 | 0.00 | 56 | 1013.5 |
| 20260508013102 | 59 | 360 | 3.0 | 5.0 | 0.00 | 0.00 | 0.00 | 56 | 1013.5 |
| 20260508012602 | 59 | 360 | 0.0 | 7.0 | 0.00 | 0.00 | 0.00 | 55 | 1013.4 |
| 20260508011541 | 60 | 360 | 4.0 | 9.0 | 0.00 | 0.00 | 0.00 | 54 | 1013.3 |
| 20260508011105 | 60 | 360 | 3.0 | 7.0 | 0.00 | 0.00 | 0.00 | 53 | 1013.4 |
| 20260508010543 | 61 | 360 | 0.0 | 6.0 | 0.00 | 0.00 | 0.00 | 54 | 1013.4 |
| 20260508010044 | 61 | 360 | 1.0 | 6.0 | 0.00 | 0.00 | 0.00 | 54 | 1013.3 |